createdAt,value
2022-11-28T00:01:16.978Z,65726.81
2022-11-28T00:06:21.348Z,65710.09
2022-11-28T00:11:27.902Z,65702.50
2022-11-28T00:16:33.437Z,65718.19
2022-11-28T00:21:39.906Z,65755.38
2022-11-28T00:26:45.464Z,65784.84
2022-11-28T00:31:49.361Z,65773.09
2022-11-28T00:36:53.429Z,65745.97
2022-11-28T00:41:58.761Z,65777.38
2022-11-28T00:47:02.745Z,65747.56
2022-11-28T00:52:06.923Z,65642.81
2022-11-28T00:57:12.186Z,65666.94
2022-11-28T01:02:16.709Z,65679.66
2022-11-28T01:07:20.812Z,65719.16
2022-11-28T01:12:26.178Z,65698.13
2022-11-28T01:17:30.081Z,65696.53
2022-11-28T01:22:34.130Z,65739.56
2022-11-28T01:27:39.472Z,65761.69
2022-11-28T01:32:46.226Z,65733.13
2022-11-28T01:37:52.178Z,65713.28
2022-11-28T01:42:57.561Z,65744.78
2022-11-28T01:48:04.549Z,65721.28
2022-11-28T01:53:11.813Z,65766.25
2022-11-28T01:58:17.737Z,65772.13
2022-11-28T02:03:24.059Z,65748.00
2022-11-28T02:08:36.457Z,65736.25
2022-11-28T02:13:52.433Z,65783.34
2022-11-28T02:19:10.667Z,65743.84
2022-11-28T02:24:56.377Z,65706.78
2022-11-28T02:30:18.812Z,65730.56
2022-11-28T02:35:29.515Z,65774.81
2022-11-28T02:40:39.854Z,65770.00
2022-11-28T02:45:51.790Z,65712.66
2022-11-28T02:51:03.451Z,65750.22
2022-11-28T02:56:11.080Z,65698.97
2022-11-28T03:01:20.854Z,65663.75
2022-11-28T03:06:39.080Z,65648.06
2022-11-28T03:11:51.625Z,65681.69
2022-11-28T03:17:06.676Z,65712.75
2022-11-28T03:22:22.358Z,65698.44
2022-11-28T03:27:34.277Z,65611.78
2022-11-28T03:32:40.978Z,65660.53
2022-11-28T03:37:51.132Z,65644.31
2022-11-28T03:43:00.162Z,65583.50
2022-11-28T03:48:09.971Z,65599.59
2022-11-28T03:53:20.648Z,65610.81
2022-11-28T03:58:29.624Z,65639.19
2022-11-28T04:03:47.570Z,65682.44
2022-11-28T04:08:59.932Z,65713.41
2022-11-28T04:14:11.517Z,65674.41
2022-11-28T04:19:23.622Z,65672.81
2022-11-28T04:24:33.878Z,65678.06
2022-11-28T04:29:44.183Z,65700.91
2022-11-28T04:34:55.958Z,65696.84
2022-11-28T04:40:02.226Z,65705.28
2022-11-28T04:45:13.007Z,65730.47
2022-11-28T04:50:17.182Z,65704.19
2022-11-28T04:55:30.298Z,65751.75
2022-11-28T05:00:36.968Z,65716.38
2022-11-28T05:05:47.402Z,65731.44
2022-11-28T05:10:53.069Z,65716.91
2022-11-28T05:15:57.123Z,65705.38
2022-11-28T05:21:01.640Z,65659.47
2022-11-28T05:26:08.721Z,65692.56
2022-11-28T05:31:14.932Z,65700.91
2022-11-28T05:36:19.489Z,65720.75
2022-11-28T05:41:26.664Z,65637.94
2022-11-28T05:46:31.235Z,65542.53
2022-11-28T05:51:35.315Z,65608.22
2022-11-28T05:56:42.510Z,65608.66
2022-11-28T06:01:47.000Z,65646.13
2022-11-28T06:06:52.096Z,65639.09
2022-11-28T06:11:57.363Z,65637.94
2022-11-28T06:17:01.316Z,65624.69
2022-11-28T06:22:06.116Z,65639.00
2022-11-28T06:27:11.493Z,65675.47
2022-11-28T06:32:21.703Z,65637.59
2022-11-28T06:37:26.267Z,65619.44
2022-11-28T06:42:31.657Z,65645.59
2022-11-28T06:47:35.531Z,65627.78
2022-11-28T06:52:39.531Z,65665.25
2022-11-28T06:57:45.364Z,65564.84
2022-11-28T07:02:49.562Z,65569.72
2022-11-28T07:07:56.036Z,65623.19
2022-11-28T07:13:05.599Z,65629.16
2022-11-28T07:18:12.792Z,65577.19
2022-11-28T07:23:16.734Z,65654.47
2022-11-28T07:28:23.503Z,65666.19
2022-11-28T07:33:27.630Z,65615.72
2022-11-28T07:38:31.970Z,65646.13
2022-11-28T07:43:44.566Z,65672.09
2022-11-28T07:48:49.753Z,65691.41
2022-11-28T07:53:54.105Z,65657.25
2022-11-28T07:59:03.338Z,65731.00
2022-11-28T08:04:09.112Z,65682.84
2022-11-28T08:09:13.153Z,65644.53
2022-11-28T08:14:18.649Z,65701.53
2022-11-28T08:19:24.652Z,65697.91
2022-11-28T08:24:28.637Z,65555.34
2022-11-28T08:29:33.781Z,65654.13
2022-11-28T08:34:40.864Z,65644.97
2022-11-28T08:39:44.800Z,65693.53
2022-11-28T08:44:50.115Z,65759.03
2022-11-28T08:49:53.862Z,65749.41
2022-11-28T08:54:57.672Z,65784.41
2022-11-28T09:00:03.447Z,65753.78
2022-11-28T09:05:07.633Z,65712.13
2022-11-28T09:10:12.053Z,65706.97
2022-11-28T09:15:17.936Z,65702.16
2022-11-28T09:20:21.908Z,65715.44
2022-11-28T09:25:25.655Z,65755.06
2022-11-28T09:30:30.835Z,65770.00
2022-11-28T09:35:34.815Z,65667.47
2022-11-28T09:40:42.190Z,65751.28
2022-11-28T09:45:52.225Z,65795.03
2022-11-28T09:50:59.781Z,65798.34
2022-11-28T09:56:10.625Z,65780.59
2022-11-28T10:01:22.627Z,65829.13
2022-11-28T10:06:32.308Z,65808.81
2022-11-28T10:11:47.805Z,65849.97
2022-11-28T10:16:59.879Z,65844.09
2022-11-28T10:22:08.613Z,65803.03
2022-11-28T10:27:14.762Z,65831.91
2022-11-28T10:32:25.737Z,65836.19
2022-11-28T10:37:32.139Z,65837.34
2022-11-28T10:42:45.188Z,65831.47
2022-11-28T10:48:38.668Z,65934.13
2022-11-28T10:53:45.187Z,65859.16
2022-11-28T10:58:56.500Z,65893.47
2022-11-28T11:04:02.042Z,65820.78
2022-11-28T11:09:06.025Z,65785.91
2022-11-28T11:14:12.444Z,65715.97
2022-11-28T11:19:26.753Z,65737.41
2022-11-28T11:24:31.090Z,65759.41
2022-11-28T11:29:36.660Z,65723.53
2022-11-28T11:34:46.805Z,65831.47
2022-11-28T11:39:52.224Z,65804.72
2022-11-28T11:44:56.704Z,65778.88
2022-11-28T11:50:06.970Z,65759.31
2022-11-28T11:55:16.313Z,65779.63
2022-11-28T12:00:22.623Z,65843.66
2022-11-28T12:05:46.709Z,65821.66
2022-11-28T12:11:06.495Z,65784.41
2022-11-28T12:16:25.869Z,65788.72
2022-11-28T12:21:41.731Z,65799.41
2022-11-28T12:26:49.053Z,65749.69
2022-11-28T12:32:01.638Z,65843.31
2022-11-28T12:37:16.885Z,65785.06
2022-11-28T12:42:30.671Z,65794.41
2022-11-28T12:47:42.432Z,65819.63
2022-11-28T12:52:57.300Z,65765.63
2022-11-28T12:58:11.602Z,65786.06
2022-11-28T13:03:29.866Z,65738.94
2022-11-28T13:08:50.300Z,65708.56
2022-11-28T13:13:58.628Z,65745.53
2022-11-28T13:19:10.561Z,65827.72
2022-11-28T13:24:24.738Z,65838.22
2022-11-28T13:29:37.176Z,65847.06
2022-11-28T13:34:41.459Z,65807.97
2022-11-28T13:39:53.973Z,65814.88
2022-11-28T13:45:01.906Z,65767.34
2022-11-28T13:50:35.068Z,65810.53
2022-11-28T13:55:44.817Z,65810.09
2022-11-28T14:01:06.190Z,65801.00
2022-11-28T14:06:10.416Z,65726.13
2022-11-28T14:11:49.776Z,65732.06
2022-11-28T14:17:09.758Z,65749.69
2022-11-28T14:22:29.989Z,65726.53
2022-11-28T14:27:39.752Z,65736.88
2022-11-28T14:32:45.424Z,65718.09
2022-11-28T14:37:53.040Z,65776.31
2022-11-28T14:43:29.689Z,65788.09
2022-11-28T14:48:33.902Z,65655.09
2022-11-28T14:53:50.075Z,65615.00
2022-11-28T14:58:57.360Z,65742.66
2022-11-28T15:04:13.818Z,65705.91
2022-11-28T15:09:28.753Z,65633.66
2022-11-28T15:14:35.579Z,65704.13
2022-11-28T15:19:44.567Z,65751.66
2022-11-28T15:24:53.544Z,65715.44
2022-11-28T15:30:00.650Z,65689.16
2022-11-28T15:35:12.459Z,65730.38
2022-11-28T15:40:23.135Z,65675.28
2022-11-28T15:45:31.433Z,65641.88
2022-11-28T15:50:36.017Z,65586.38
2022-11-28T15:55:40.246Z,65691.31
2022-11-28T16:00:50.463Z,65669.50
2022-11-28T16:05:58.286Z,65513.13
2022-11-28T16:11:05.640Z,65508.84
2022-11-28T16:16:14.100Z,65669.19
2022-11-28T16:21:18.315Z,65615.63
2022-11-28T16:26:25.912Z,65664.06
2022-11-28T16:31:32.013Z,65629.03
2022-11-28T16:36:38.734Z,65673.16
2022-11-28T16:41:52.005Z,65673.34
2022-11-28T16:46:59.218Z,65627.25
2022-11-28T16:52:37.250Z,65690.25
2022-11-28T16:57:46.997Z,65632.59
2022-11-28T17:02:54.104Z,65656.06
2022-11-28T17:08:01.584Z,65617.66
2022-11-28T17:13:05.906Z,65611.97
2022-11-28T17:18:16.486Z,65613.56
2022-11-28T17:23:25.351Z,65665.34
2022-11-28T17:28:29.388Z,65672.63
2022-11-28T17:33:34.828Z,65554.91
2022-11-28T17:38:38.822Z,65599.16
2022-11-28T17:43:43.050Z,65599.06
2022-11-28T17:48:48.357Z,65578.91
2022-11-28T17:53:52.628Z,65549.38
2022-11-28T17:58:56.589Z,65539.97
2022-11-28T18:04:02.016Z,65554.72
2022-11-28T18:09:11.851Z,65572.41
2022-11-28T18:14:20.041Z,65513.75
2022-11-28T18:19:26.434Z,65514.38
2022-11-28T18:24:30.610Z,65516.75
2022-11-28T18:29:35.025Z,65534.53
2022-11-28T18:34:41.161Z,65595.97
2022-11-28T18:39:47.995Z,65539.31
2022-11-28T18:44:52.157Z,65467.13
2022-11-28T18:49:57.712Z,65550.00
2022-11-28T18:55:02.180Z,65540.50
2022-11-28T19:00:08.820Z,65570.78
2022-11-28T19:05:14.024Z,65545.81
2022-11-28T19:10:18.842Z,65505.13
2022-11-28T19:15:23.628Z,65503.09
2022-11-28T19:20:29.094Z,65541.47
2022-11-28T19:25:35.386Z,65436.22
2022-11-28T19:30:39.459Z,65437.53
2022-11-28T19:35:45.319Z,65424.66
2022-11-28T19:40:49.460Z,65442.84
2022-11-28T19:45:56.733Z,65492.44
2022-11-28T19:51:03.602Z,65540.41
2022-11-28T19:56:10.379Z,65534.63
2022-11-28T20:01:16.400Z,65533.03
2022-11-28T20:06:26.721Z,65502.03
2022-11-28T20:11:33.576Z,65494.47
2022-11-28T20:16:38.452Z,65489.66
2022-11-28T20:21:44.089Z,65485.16
2022-11-28T20:26:49.547Z,65490.81
2022-11-28T20:31:55.120Z,65493.41
2022-11-28T20:37:03.445Z,65497.84
2022-11-28T20:42:08.023Z,65500.53
2022-11-28T20:47:12.189Z,65502.66
2022-11-28T20:52:17.762Z,65455.84
2022-11-28T20:57:22.581Z,65481.13
2022-11-28T21:02:26.900Z,65416.13
2022-11-28T21:07:33.159Z,65452.44
2022-11-28T21:12:37.442Z,65423.06
2022-11-28T21:17:41.716Z,65442.31
2022-11-28T21:22:47.788Z,65408.34
2022-11-28T21:27:51.820Z,65400.88
2022-11-28T21:32:56.524Z,65349.03
2022-11-28T21:38:02.004Z,65350.28
2022-11-28T21:43:06.051Z,65358.72
2022-11-28T21:48:10.120Z,65385.44
2022-11-28T21:53:16.854Z,65397.47
2022-11-28T21:58:26.746Z,65369.34
2022-11-28T22:03:32.088Z,65397.16
2022-11-28T22:08:37.337Z,65384.69
2022-11-28T22:13:42.930Z,65340.69
2022-11-28T22:18:47.635Z,65380.53
2022-11-28T22:23:52.890Z,65424.84
2022-11-28T22:28:58.788Z,65435.94
2022-11-28T22:34:03.661Z,65397.59
2022-11-28T22:39:10.210Z,65385.31
2022-11-28T22:44:14.837Z,65351.16
2022-11-28T22:49:19.186Z,65309.63
2022-11-28T22:54:25.665Z,65345.41
2022-11-28T22:59:33.700Z,65321.78
2022-11-28T23:04:38.509Z,65328.81
2022-11-28T23:09:43.938Z,65327.41
2022-11-28T23:14:51.604Z,65326.25
2022-11-28T23:19:56.026Z,65326.13
2022-11-28T23:25:01.546Z,65309.19
2022-11-28T23:30:07.977Z,65287.38
2022-11-28T23:35:11.835Z,65345.41
2022-11-28T23:40:18.402Z,65314.09
2022-11-28T23:45:23.005Z,65317.28
2022-11-28T23:50:27.514Z,65316.44
2022-11-28T23:55:34.660Z,65364.56
